Investigator — VLMJ — position and weather

sailwx.info

Track history (hours):
 
Tides and Currents Weather Stations Pressure Air Temp Water Temp Dewpoint Dewpoint Depression Visibility Wind Speed Wind Dir Waves Ship Positions

Oceanographic research ship Investigator (Australia)

Last reported at 2020-Oct-01 11:29 UTC. Time now 2020-Oct-01 11:55 UTC.
Position S 42°53' E 147°20'.

Length 93 m; draft 6.5 m.

Type: Other ship. MMSI: 503791000.

Date/timePositionNaut miles runAvg speedWind from/ knotsBaromVisibWave heightAir tempDewpointWater temp
2020-Oct-01 11:29S 42°53' E 147°20'0 0.0
2020-Oct-01 09:59S 42°53' E 147°20'0 0.0
2020-Oct-01 07:59S 42°53' E 147°20'0 0.0
2020-Sep-30 22:28S 42°53' E 147°20'0 0.0
2020-Sep-30 21:28S 42°53' E 147°20'0 0.0
2020-Sep-30 14:58S 42°53' E 147°20'0 0.0
2020-Sep-30 12:58S 42°53' E 147°20'0 0.0
2020-Sep-30 09:58S 42°53' E 147°20'0 0.0
2020-Sep-30 05:58S 42°53' E 147°20'0 0.0
2020-Sep-30 05:28S 42°53' E 147°20'0 0.0
2020-Sep-30 04:58S 42°53' E 147°20'0 0.0
2020-Sep-30 02:58S 42°53' E 147°20'0 0.0
2020-Sep-30 02:28S 42°53' E 147°20'0 0.0
2020-Sep-29 23:28S 42°53' E 147°20'0 0.0
2020-Sep-29 16:58S 42°53' E 147°20'0 0.0
2020-Sep-29 15:58S 42°53' E 147°20'0 0.0
2020-Sep-29 14:27S 42°53' E 147°20'0 0.0
2020-Sep-29 14:01S 42°53' E 147°20'0 0.0
2020-Sep-29 13:00S 42°53' E 147°20'0 0.0
2020-Sep-29 11:27S 42°53' E 147°20'0 0.0
2020-Sep-29 10:00S 42°53' E 147°20'0 0.0
2020-Sep-29 07:00S 42°53' E 147°20'0 0.0
2020-Sep-29 04:54S 42°53' E 147°20'0 0.0
2020-Sep-29 04:30S 42°53' E 147°20'0 0.0
2020-Sep-29 00:30S 42°53' E 147°20'0 0.0
2020-Sep-28 22:00S 42°53' E 147°20'0 0.0
2020-Sep-28 20:00S 42°53' E 147°20'0 0.0
2020-Sep-28 19:30S 42°53' E 147°20'0 0.0
2020-Sep-28 18:30S 42°53' E 147°20'0 0.0
2020-Sep-28 17:30S 42°53' E 147°20'0 0.0
2020-Sep-28 17:00S 42°53' E 147°20'0 0.0
2020-Sep-28 15:57S 42°53' E 147°20'0 0.0
2020-Sep-28 14:00S 42°53' E 147°20'0 0.0
2020-Sep-28 12:00S 42°53' E 147°20'0 0.0
2020-Sep-28 11:30S 42°53' E 147°20'0 0.0
2020-Sep-28 10:57S 42°53' E 147°20'0 0.0
2020-Sep-28 10:30S 42°53' E 147°20'0 0.0
2020-Sep-28 08:30S 42°53' E 147°20'0 0.0
2020-Sep-28 07:31S 42°53' E 147°20'6 1.2
2020-Sep-28 03:01S 42°59' E 147°23'0 0.0
2020-Sep-28 01:31S 42°59' E 147°23'0 0.1
2020-Sep-28 01:00S 42°59' E 147°23'8 2.7
2020-Sep-27 21:59S 42°51' E 147°20'0 0.0
2020-Sep-27 19:59S 42°51' E 147°20'0 0.0
2020-Sep-27 18:44S 42°51' E 147°20'0 0.0
2020-Sep-27 16:56S 42°51' E 147°20'0 0.0
2020-Sep-27 13:59S 42°51' E 147°20'0 0.0
2020-Sep-27 12:59S 42°51' E 147°20'0 0.0
2020-Sep-27 09:59S 42°51' E 147°20'0 0.0
2020-Sep-27 07:29S 42°51' E 147°20'0 0.0
2020-Sep-27 02:58S 42°51' E 147°20'3 0.6
2020-Sep-26 23:00S 42°53' E 147°20'0 0.0
2020-Sep-26 22:01S 42°53' E 147°20'0 0.0
2020-Sep-26 19:00S 42°53' E 147°20'0 0.0
2020-Sep-26 15:01S 42°53' E 147°20'0 0.0
2020-Sep-26 11:01S 42°53' E 147°20'0 0.0
2020-Sep-26 09:30S 42°53' E 147°20'0 0.0
2020-Sep-26 08:00S 42°53' E 147°20'0 0.0
2020-Sep-26 07:30S 42°53' E 147°20'0 0.0
2020-Sep-26 07:00S 42°53' E 147°20'0 0.0
2020-Sep-26 06:30S 42°53' E 147°20'0 0.0
2020-Sep-26 05:31S 42°53' E 147°20'0 0.0
2020-Sep-26 00:31S 42°53' E 147°20'0 0.0
2020-Sep-25 23:31S 42°53' E 147°20'0 0.0
2020-Sep-25 20:31S 42°53' E 147°20'0 0.0
2020-Sep-25 19:31S 42°53' E 147°20'0 0.0
2020-Sep-25 14:31S 42°53' E 147°20'0 0.0
2020-Sep-25 14:00S 42°53' E 147°20'0 0.0
2020-Sep-25 13:31S 42°53' E 147°20'0 0.0
2020-Sep-25 08:30S 42°53' E 147°20'0 0.0
2020-Sep-25 07:30S 42°53' E 147°20'0 0.0
2020-Sep-25 07:00S 42°53' E 147°20'0 0.0
2020-Sep-25 06:00S 42°53' E 147°20'0 0.0
2020-Sep-25 04:01S 42°53' E 147°20'0 0.0
2020-Sep-25 00:31S 42°53' E 147°20'0 0.0
2020-Sep-24 17:01S 42°53' E 147°20'0 0.0
2020-Sep-24 16:01S 42°53' E 147°20'0 0.0
2020-Sep-24 15:30S 42°53' E 147°20'0 0.0
2020-Sep-24 14:01S 42°53' E 147°20'0 0.0
2020-Sep-24 07:31S 42°53' E 147°20'0 0.0
2020-Sep-24 06:30S 42°53' E 147°20'0 0.0
2020-Sep-24 05:31S 42°53' E 147°20'0 0.0
2020-Sep-24 03:01S 42°53' E 147°20'0 0.0
2020-Sep-24 02:30S 42°53' E 147°20'0 0.0
2020-Sep-24 02:01S 42°53' E 147°20'0 0.0
2020-Sep-23 21:31S 42°53' E 147°20'0 0.0
2020-Sep-23 20:00S 42°53' E 147°20'0 0.0
2020-Sep-23 19:25S 42°53' E 147°20'0 0.0
2020-Sep-23 19:24S 42°53' E 147°20'0 0.0
2020-Sep-23 19:01S 42°53' E 147°20'0 0.0
2020-Sep-23 15:00S 42°53' E 147°20'0 0.0
2020-Sep-23 14:01S 42°53' E 147°20'0 0.0
2020-Sep-23 12:01S 42°53' E 147°20'0 0.0
2020-Sep-23 11:01S 42°53' E 147°20'0 0.0
2020-Sep-23 10:31S 42°53' E 147°20'0 0.0
2020-Sep-23 01:59S 42°53' E 147°20'0 0.0
2020-Sep-22 22:59S 42°53' E 147°20'2 1.9
2020-Sep-22 22:00S 42°54' E 147°18'0 0.0 330 / 6997.5 11.1 5.7
2020-Sep-22 21:00S 42°54' E 147°18'0 0.0 350 / 8996.7 10.9 5.3
2020-Sep-22 20:00S 42°54' E 147°18'0 0.0 995.5 10.0 5.9
2020-Sep-22 19:00S 42°54' E 147°18'0 0.0 330 / 10995.1 10.5 5.3
2020-Sep-22 18:00S 42°54' E 147°18'0 0.0 350 / 16994.1 11.0 4.3
2020-Sep-22 17:00S 42°54' E 147°18'2 3.4 994.1 10.8 3.9
2020-Sep-22 16:26S 42°53' E 147°20'2 4.3
2020-Sep-22 16:00S 42°54' E 147°18'2207.1 350 / 12994.4 10.4 4.0
2020-Sep-22 15:59S 42°53' E 147°20'0 0.0
2020-Sep-22 15:26S 42°53' E 147°20'2 4.3
2020-Sep-22 15:00S 42°54' E 147°18'0 0.0 340 / 8995.3 10.4 5.0
2020-Sep-22 14:00S 42°54' E 147°18'0 0.0 340 / 12995.6 10.7 5.1
2020-Sep-22 13:00S 42°54' E 147°18'0 0.0 320 / 14995.5 11.6 4.5
2020-Sep-22 12:00S 42°54' E 147°18'230.5 340 / 12995.3 11.7 4.6
2020-Sep-22 11:56S 42°53' E 147°20'2 2.0
2020-Sep-22 11:00S 42°54' E 147°18'230.1 330 / 8995.1 11.8 5.6
2020-Sep-22 10:56S 42°53' E 147°20'2 2.0
2020-Sep-22 10:00S 42°54' E 147°18'2136.7 330 / 16995.0 12.1 6.4
2020-Sep-22 09:59S 42°53' E 147°20'0 0.0
2020-Sep-22 09:29S 42°53' E 147°20'2 3.9
2020-Sep-22 09:00S 42°54' E 147°18'0 0.0 330 / 12994.7 12.9 7.0
2020-Sep-22 08:00S 42°54' E 147°18'2124.4 310 / 8994.2 13.9 6.8
2020-Sep-22 07:59S 42°53' E 147°20'0 0.0
2020-Sep-22 07:29S 42°53' E 147°20'2 3.9
2020-Sep-22 07:00S 42°54' E 147°18'2119.9 310 / 8993.8 14.6 6.4
2020-Sep-22 06:59S 42°53' E 147°20'2 1.9
2020-Sep-22 06:00S 42°54' E 147°18'0 0.0 320 / 14993.2 15.9 4.9
2020-Sep-22 05:00S 42°54' E 147°18'2114.1 330 / 14993.0 16.0 4.7
2020-Sep-22 04:59S 42°53' E 147°20'2 1.9
2020-Sep-22 04:00S 42°54' E 147°18'228.2 290 / 12992.6 16.7 5.1
2020-Sep-22 03:55S 42°53' E 147°20'0 0.0
2020-Sep-22 03:28S 42°53' E 147°20'2 3.9
2020-Sep-22 03:00S 42°54' E 147°18'0 0.0 280 / 12992.9 16.7 4.8
2020-Sep-22 02:00S 42°54' E 147°18'0 0.0 310 / 14993.2 16.6 4.0
2020-Sep-22 01:00S 42°54' E 147°18'0 0.0 300 / 10993.3 16.7 4.2
2020-Sep-22 00:00S 42°54' E 147°18'0 0.0 330 / 14993.9 15.3 3.9
2020-Sep-21 23:00S 42°54' E 147°18'211.2 340 / 16994.2 14.4 4.4
2020-Sep-21 22:49S 42°53' E 147°20'2 2.3
2020-Sep-21 22:00S 42°54' E 147°18'297.8 350 / 12994.5 13.2 4.4
2020-Sep-21 21:58S 42°53' E 147°20'0 0.0
2020-Sep-21 21:28S 42°53' E 147°20'2 4.0
2020-Sep-21 21:00S 42°54' E 147°18'2 3.1 310 / 2995.0 13.1 4.2
2020-Sep-21 20:22S 42°53' E 147°20'2 5.0
2020-Sep-21 20:00S 42°54' E 147°18'0 0.0 320 / 10995.1 12.4 4.0
2020-Sep-21 19:00S 42°54' E 147°18'0 0.0 290 / 4994.9 10.6 5.6
2020-Sep-21 18:00S 42°54' E 147°18'2 2.2 240 / 2995.0 10.5 5.6
2020-Sep-21 17:07S 42°53' E 147°20'214.9
2020-Sep-21 17:00S 42°54' E 147°18'0 0.0 050 / 2995.6 10.6 5.2
2020-Sep-21 16:00S 42°54' E 147°18'2 6.9 270 / 4996.8 10.7 5.2
2020-Sep-21 15:43S 42°53' E 147°20'2 2.6
2020-Sep-21 15:00S 42°54' E 147°18'0 0.0 250 997.9 11.6 5.1
2020-Sep-21 14:00S 42°54' E 147°18'0 0.0 320 / 4998.0 11.7 4.3
2020-Sep-21 13:00S 42°54' E 147°18'0 0.0 340 / 4998.5 12.2 4.2
2020-Sep-21 12:00S 42°54' E 147°18'   330 / 10998.8 13.2 4.4
Track history (hours):
 
Tides and Currents Weather Stations Pressure Air Temp Water Temp Dewpoint Dewpoint Depression Visibility Wind Speed Wind Dir Waves Ship Positions

Oceanographic research ship Investigator (Australia)

Last reported at 2020-Oct-01 11:29 UTC. Time now 2020-Oct-01 11:55 UTC.
Position S 42°53' E 147°20'.

Length 93 m; draft 6.5 m.

Type: Other ship. MMSI: 503791000.

Date/timePositionNaut miles runAvg speedWind from/ knotsBaromVisibWave heightAir tempDewpointWater temp
2020-Oct-01 11:29S 42°53' E 147°20'0 0.0
2020-Oct-01 09:59S 42°53' E 147°20'0 0.0
2020-Oct-01 07:59S 42°53' E 147°20'0 0.0
2020-Sep-30 22:28S 42°53' E 147°20'0 0.0
2020-Sep-30 21:28S 42°53' E 147°20'0 0.0
2020-Sep-30 14:58S 42°53' E 147°20'0 0.0
2020-Sep-30 12:58S 42°53' E 147°20'0 0.0
2020-Sep-30 09:58S 42°53' E 147°20'0 0.0
2020-Sep-30 05:58S 42°53' E 147°20'0 0.0
2020-Sep-30 05:28S 42°53' E 147°20'0 0.0
2020-Sep-30 04:58S 42°53' E 147°20'0 0.0
2020-Sep-30 02:58S 42°53' E 147°20'0 0.0
2020-Sep-30 02:28S 42°53' E 147°20'0 0.0
2020-Sep-29 23:28S 42°53' E 147°20'0 0.0
2020-Sep-29 16:58S 42°53' E 147°20'0 0.0
2020-Sep-29 15:58S 42°53' E 147°20'0 0.0
2020-Sep-29 14:27S 42°53' E 147°20'0 0.0
2020-Sep-29 14:01S 42°53' E 147°20'0 0.0
2020-Sep-29 13:00S 42°53' E 147°20'0 0.0
2020-Sep-29 11:27S 42°53' E 147°20'0 0.0
2020-Sep-29 10:00S 42°53' E 147°20'0 0.0
2020-Sep-29 07:00S 42°53' E 147°20'0 0.0
2020-Sep-29 04:54S 42°53' E 147°20'0 0.0
2020-Sep-29 04:30S 42°53' E 147°20'0 0.0
2020-Sep-29 00:30S 42°53' E 147°20'0 0.0
2020-Sep-28 22:00S 42°53' E 147°20'0 0.0
2020-Sep-28 20:00S 42°53' E 147°20'0 0.0
2020-Sep-28 19:30S 42°53' E 147°20'0 0.0
2020-Sep-28 18:30S 42°53' E 147°20'0 0.0
2020-Sep-28 17:30S 42°53' E 147°20'0 0.0
2020-Sep-28 17:00S 42°53' E 147°20'0 0.0
2020-Sep-28 15:57S 42°53' E 147°20'0 0.0
2020-Sep-28 14:00S 42°53' E 147°20'0 0.0
2020-Sep-28 12:00S 42°53' E 147°20'0 0.0
2020-Sep-28 11:30S 42°53' E 147°20'0 0.0
2020-Sep-28 10:57S 42°53' E 147°20'0 0.0
2020-Sep-28 10:30S 42°53' E 147°20'0 0.0
2020-Sep-28 08:30S 42°53' E 147°20'0 0.0
2020-Sep-28 07:31S 42°53' E 147°20'6 1.2
2020-Sep-28 03:01S 42°59' E 147°23'0 0.0
2020-Sep-28 01:31S 42°59' E 147°23'0 0.1
2020-Sep-28 01:00S 42°59' E 147°23'8 2.7
2020-Sep-27 21:59S 42°51' E 147°20'0 0.0
2020-Sep-27 19:59S 42°51' E 147°20'0 0.0
2020-Sep-27 18:44S 42°51' E 147°20'0 0.0
2020-Sep-27 16:56S 42°51' E 147°20'0 0.0
2020-Sep-27 13:59S 42°51' E 147°20'0 0.0
2020-Sep-27 12:59S 42°51' E 147°20'0 0.0
2020-Sep-27 09:59S 42°51' E 147°20'0 0.0
2020-Sep-27 07:29S 42°51' E 147°20'0 0.0
2020-Sep-27 02:58S 42°51' E 147°20'3 0.6
2020-Sep-26 23:00S 42°53' E 147°20'0 0.0
2020-Sep-26 22:01S 42°53' E 147°20'0 0.0
2020-Sep-26 19:00S 42°53' E 147°20'0 0.0
2020-Sep-26 15:01S 42°53' E 147°20'0 0.0
2020-Sep-26 11:01S 42°53' E 147°20'0 0.0
2020-Sep-26 09:30S 42°53' E 147°20'0 0.0
2020-Sep-26 08:00S 42°53' E 147°20'0 0.0
2020-Sep-26 07:30S 42°53' E 147°20'0 0.0
2020-Sep-26 07:00S 42°53' E 147°20'0 0.0
2020-Sep-26 06:30S 42°53' E 147°20'0 0.0
2020-Sep-26 05:31S 42°53' E 147°20'0 0.0
2020-Sep-26 00:31S 42°53' E 147°20'0 0.0
2020-Sep-25 23:31S 42°53' E 147°20'0 0.0
2020-Sep-25 20:31S 42°53' E 147°20'0 0.0
2020-Sep-25 19:31S 42°53' E 147°20'0 0.0
2020-Sep-25 14:31S 42°53' E 147°20'0 0.0
2020-Sep-25 14:00S 42°53' E 147°20'0 0.0
2020-Sep-25 13:31S 42°53' E 147°20'0 0.0
2020-Sep-25 08:30S 42°53' E 147°20'0 0.0
2020-Sep-25 07:30S 42°53' E 147°20'0 0.0
2020-Sep-25 07:00S 42°53' E 147°20'0 0.0
2020-Sep-25 06:00S 42°53' E 147°20'0 0.0
2020-Sep-25 04:01S 42°53' E 147°20'0 0.0
2020-Sep-25 00:31S 42°53' E 147°20'0 0.0
2020-Sep-24 17:01S 42°53' E 147°20'0 0.0
2020-Sep-24 16:01S 42°53' E 147°20'0 0.0
2020-Sep-24 15:30S 42°53' E 147°20'0 0.0
2020-Sep-24 14:01S 42°53' E 147°20'0 0.0
2020-Sep-24 07:31S 42°53' E 147°20'0 0.0
2020-Sep-24 06:30S 42°53' E 147°20'0 0.0
2020-Sep-24 05:31S 42°53' E 147°20'0 0.0
2020-Sep-24 03:01S 42°53' E 147°20'0 0.0
2020-Sep-24 02:30S 42°53' E 147°20'0 0.0
2020-Sep-24 02:01S 42°53' E 147°20'0 0.0
2020-Sep-23 21:31S 42°53' E 147°20'0 0.0
2020-Sep-23 20:00S 42°53' E 147°20'0 0.0
2020-Sep-23 19:25S 42°53' E 147°20'0 0.0
2020-Sep-23 19:24S 42°53' E 147°20'0 0.0
2020-Sep-23 19:01S 42°53' E 147°20'0 0.0
2020-Sep-23 15:00S 42°53' E 147°20'0 0.0
2020-Sep-23 14:01S 42°53' E 147°20'0 0.0
2020-Sep-23 12:01S 42°53' E 147°20'0 0.0
2020-Sep-23 11:01S 42°53' E 147°20'0 0.0
2020-Sep-23 10:31S 42°53' E 147°20'0 0.0
2020-Sep-23 01:59S 42°53' E 147°20'0 0.0
2020-Sep-22 22:59S 42°53' E 147°20'2 1.9
2020-Sep-22 22:00S 42°54' E 147°18'0 0.0 330 / 6997.5 11.1 5.7
2020-Sep-22 21:00S 42°54' E 147°18'0 0.0 350 / 8996.7 10.9 5.3
2020-Sep-22 20:00S 42°54' E 147°18'0 0.0 995.5 10.0 5.9
2020-Sep-22 19:00S 42°54' E 147°18'0 0.0 330 / 10995.1 10.5 5.3
2020-Sep-22 18:00S 42°54' E 147°18'0 0.0 350 / 16994.1 11.0 4.3
2020-Sep-22 17:00S 42°54' E 147°18'2 3.4 994.1 10.8 3.9
2020-Sep-22 16:26S 42°53' E 147°20'2 4.3
2020-Sep-22 16:00S 42°54' E 147°18'2207.1 350 / 12994.4 10.4 4.0
2020-Sep-22 15:59S 42°53' E 147°20'0 0.0
2020-Sep-22 15:26S 42°53' E 147°20'2 4.3
2020-Sep-22 15:00S 42°54' E 147°18'0 0.0 340 / 8995.3 10.4 5.0
2020-Sep-22 14:00S 42°54' E 147°18'0 0.0 340 / 12995.6 10.7 5.1
2020-Sep-22 13:00S 42°54' E 147°18'0 0.0 320 / 14995.5 11.6 4.5
2020-Sep-22 12:00S 42°54' E 147°18'230.5 340 / 12995.3 11.7 4.6
2020-Sep-22 11:56S 42°53' E 147°20'2 2.0
2020-Sep-22 11:00S 42°54' E 147°18'230.1 330 / 8995.1 11.8 5.6
2020-Sep-22 10:56S 42°53' E 147°20'2 2.0
2020-Sep-22 10:00S 42°54' E 147°18'2136.7 330 / 16995.0 12.1 6.4
2020-Sep-22 09:59S 42°53' E 147°20'0 0.0
2020-Sep-22 09:29S 42°53' E 147°20'2 3.9
2020-Sep-22 09:00S 42°54' E 147°18'0 0.0 330 / 12994.7 12.9 7.0
2020-Sep-22 08:00S 42°54' E 147°18'2124.4 310 / 8994.2 13.9 6.8
2020-Sep-22 07:59S 42°53' E 147°20'0 0.0
2020-Sep-22 07:29S 42°53' E 147°20'2 3.9
2020-Sep-22 07:00S 42°54' E 147°18'2119.9 310 / 8993.8 14.6 6.4
2020-Sep-22 06:59S 42°53' E 147°20'2 1.9
2020-Sep-22 06:00S 42°54' E 147°18'0 0.0 320 / 14993.2 15.9 4.9
2020-Sep-22 05:00S 42°54' E 147°18'2114.1 330 / 14993.0 16.0 4.7
2020-Sep-22 04:59S 42°53' E 147°20'2 1.9
2020-Sep-22 04:00S 42°54' E 147°18'228.2 290 / 12992.6 16.7 5.1
2020-Sep-22 03:55S 42°53' E 147°20'0 0.0
2020-Sep-22 03:28S 42°53' E 147°20'2 3.9
2020-Sep-22 03:00S 42°54' E 147°18'0 0.0 280 / 12992.9 16.7 4.8
2020-Sep-22 02:00S 42°54' E 147°18'0 0.0 310 / 14993.2 16.6 4.0
2020-Sep-22 01:00S 42°54' E 147°18'0 0.0 300 / 10993.3 16.7 4.2
2020-Sep-22 00:00S 42°54' E 147°18'0 0.0 330 / 14993.9 15.3 3.9
2020-Sep-21 23:00S 42°54' E 147°18'211.2 340 / 16994.2 14.4 4.4
2020-Sep-21 22:49S 42°53' E 147°20'2 2.3
2020-Sep-21 22:00S 42°54' E 147°18'297.8 350 / 12994.5 13.2 4.4
2020-Sep-21 21:58S 42°53' E 147°20'0 0.0
2020-Sep-21 21:28S 42°53' E 147°20'2 4.0
2020-Sep-21 21:00S 42°54' E 147°18'2 3.1 310 / 2995.0 13.1 4.2
2020-Sep-21 20:22S 42°53' E 147°20'2 5.0
2020-Sep-21 20:00S 42°54' E 147°18'0 0.0 320 / 10995.1 12.4 4.0
2020-Sep-21 19:00S 42°54' E 147°18'0 0.0 290 / 4994.9 10.6 5.6
2020-Sep-21 18:00S 42°54' E 147°18'2 2.2 240 / 2995.0 10.5 5.6
2020-Sep-21 17:07S 42°53' E 147°20'214.9
2020-Sep-21 17:00S 42°54' E 147°18'0 0.0 050 / 2995.6 10.6 5.2
2020-Sep-21 16:00S 42°54' E 147°18'2 6.9 270 / 4996.8 10.7 5.2
2020-Sep-21 15:43S 42°53' E 147°20'2 2.6
2020-Sep-21 15:00S 42°54' E 147°18'0 0.0 250 997.9 11.6 5.1
2020-Sep-21 14:00S 42°54' E 147°18'0 0.0 320 / 4998.0 11.7 4.3
2020-Sep-21 13:00S 42°54' E 147°18'0 0.0 340 / 4998.5 12.2 4.2
2020-Sep-21 12:00S 42°54' E 147°18'   330 / 10998.8 13.2 4.4

Dump ship's entire track history